CheckWX is a tool to help pilots better visualize weather data.  It is not intended as a substitute for an official pre-flight weather briefing.

18:26:13 UTC

ENHM METAR
Heimdal Oilp
Heimdal Oilp, Norway
Current

36 mins ago

ENHM 241750Z AUTO 10017KT 9999NDV -SHRA FEW039/// BKN048/// 10/07 Q1006 W08/S4
Observed
Apr-24 @ 17:50 UTC
Wind
  • 100° at 17 KTS
Visibility
Conditions
Light Rain
Cloud Levels
  • Few at 3,900' AGL
  • Broken at 4,800' AGL
Temperature
10°C / 50°F
Dewpoint
C / 45°F
Humidity
82%
Altimeter
29.7" Hg
Pressure
1005.92 hPa
Previous

1 hour ago

ENHM 241720Z AUTO 12019KT 9999NDV -RA BKN050/// 10/06 Q1006 W08/S4
Observed
Apr-24 @ 17:20 UTC
Wind
  • 120° at 19 KTS
Visibility
Conditions
Light Rain
Cloud Levels
  • Broken at 5,000' AGL
Temperature
10°C / 50°F
Dewpoint
C / 43°F
Humidity
76%
Altimeter
29.7" Hg
Pressure
1005.92 hPa
Previous

2 hours ago

ENHM 241650Z 12022KT 9999 BKN050 11/05 Q1006 W08/S4
Observed
Apr-24 @ 16:50 UTC
Wind
  • 120° at 22 KTS
Visibility
10,000+ meters
Flight Rules
VFR
Cloud Levels
  • Broken at 5,000' AGL
Temperature
11°C / 52°F
Dewpoint
C / 41°F
Humidity
67%
Altimeter
29.7" Hg
Pressure
1005.92 hPa